sensor_id;sensor_type;location;lat;lon;timestamp;P1;durP1;ratioP1;P2;durP2;ratioP2
50651;SDS011;66928;52.086;5.240;2023-05-28T00:26:19;21.2;;;9.9;;
50651;SDS011;66928;52.086;5.240;2023-05-28T05:40:07;18.91;;;10.3;;
50651;SDS011;66928;52.086;5.240;2023-05-28T05:43:20;19.3;;;9.81;;
50651;SDS011;66928;52.086;5.240;2023-05-28T05:44:56;16.4;;;10.0;;
50651;SDS011;66928;52.086;5.240;2023-05-28T05:46:32;17.41;;;9.31;;
50651;SDS011;66928;52.086;5.240;2023-05-28T05:49:45;18.91;;;9.6;;
50651;SDS011;66928;52.086;5.240;2023-05-28T05:51:21;17.3;;;9.6;;
50651;SDS011;66928;52.086;5.240;2023-05-28T05:52:57;15.9;;;8.81;;
50651;SDS011;66928;52.086;5.240;2023-05-28T05:56:09;19.11;;;8.9;;
50651;SDS011;66928;52.086;5.240;2023-05-28T05:57:46;21.1;;;9.5;;
50651;SDS011;66928;52.086;5.240;2023-05-28T05:59:23;17.2;;;8.9;;
50651;SDS011;66928;52.086;5.240;2023-05-28T06:00:59;17.7;;;9.31;;
50651;SDS011;66928;52.086;5.240;2023-05-28T06:04:11;19.5;;;9.21;;
50651;SDS011;66928;52.086;5.240;2023-05-28T06:05:49;17.7;;;9.4;;
50651;SDS011;66928;52.086;5.240;2023-05-28T06:07:26;16.7;;;9.5;;
50651;SDS011;66928;52.086;5.240;2023-05-28T06:10:39;15.1;;;9.21;;
50651;SDS011;66928;52.086;5.240;2023-05-28T06:12:15;19.61;;;9.4;;
50651;SDS011;66928;52.086;5.240;2023-05-28T06:13:51;17.5;;;9.4;;
50651;SDS011;66928;52.086;5.240;2023-05-28T06:17:04;14.3;;;9.1;;
50651;SDS011;66928;52.086;5.240;2023-05-28T06:18:40;18.11;;;8.81;;
50651;SDS011;66928;52.086;5.240;2023-05-28T06:20:17;16.8;;;9.21;;
50651;SDS011;66928;52.086;5.240;2023-05-28T06:21:53;16.9;;;9.0;;
50651;SDS011;66928;52.086;5.240;2023-05-28T06:25:05;17.61;;;9.5;;
50651;SDS011;66928;52.086;5.240;2023-05-28T06:26:42;20.7;;;9.81;;
50651;SDS011;66928;52.086;5.240;2023-05-28T06:28:18;17.8;;;9.81;;
50651;SDS011;66928;52.086;5.240;2023-05-28T06:31:31;20.8;;;9.31;;
50651;SDS011;66928;52.086;5.240;2023-05-28T06:33:07;17.61;;;9.0;;
50651;SDS011;66928;52.086;5.240;2023-05-28T06:34:44;16.8;;;8.71;;
50651;SDS011;66928;52.086;5.240;2023-05-28T06:37:56;17.0;;;8.81;;
50651;SDS011;66928;52.086;5.240;2023-05-28T06:39:33;17.7;;;9.21;;
50651;SDS011;66928;52.086;5.240;2023-05-28T06:41:10;15.8;;;9.21;;
50651;SDS011;66928;52.086;5.240;2023-05-28T06:44:22;18.11;;;9.5;;
50651;SDS011;66928;52.086;5.240;2023-05-28T06:45:58;18.11;;;9.0;;
50651;SDS011;66928;52.086;5.240;2023-05-28T06:47:34;18.3;;;9.5;;
50651;SDS011;66928;52.086;5.240;2023-05-28T06:49:10;17.0;;;9.1;;
50651;SDS011;66928;52.086;5.240;2023-05-28T06:52:23;18.41;;;9.0;;
50651;SDS011;66928;52.086;5.240;2023-05-28T06:54:01;17.5;;;9.0;;
50651;SDS011;66928;52.086;5.240;2023-05-28T06:55:37;18.2;;;8.9;;
50651;SDS011;66928;52.086;5.240;2023-05-28T06:58:49;16.3;;;8.9;;
50651;SDS011;66928;52.086;5.240;2023-05-28T07:00:25;17.11;;;9.5;;
50651;SDS011;66928;52.086;5.240;2023-05-28T07:02:01;17.11;;;9.5;;
50651;SDS011;66928;52.086;5.240;2023-05-28T07:05:14;16.61;;;8.71;;
50651;SDS011;66928;52.086;5.240;2023-05-28T07:06:50;16.5;;;9.21;;
50651;SDS011;66928;52.086;5.240;2023-05-28T07:08:27;16.8;;;9.31;;
50651;SDS011;66928;52.086;5.240;2023-05-28T07:10:04;18.41;;;8.9;;
50651;SDS011;66928;52.086;5.240;2023-05-28T07:13:17;16.9;;;9.1;;
50651;SDS011;66928;52.086;5.240;2023-05-28T07:14:53;16.0;;;9.31;;
50651;SDS011;66928;52.086;5.240;2023-05-28T07:16:29;14.7;;;8.81;;
50651;SDS011;66928;52.086;5.240;2023-05-28T07:19:41;19.0;;;9.1;;
50651;SDS011;66928;52.086;5.240;2023-05-28T07:21:17;16.7;;;8.81;;
50651;SDS011;66928;52.086;5.240;2023-05-28T07:22:53;16.61;;;9.31;;
50651;SDS011;66928;52.086;5.240;2023-05-28T07:26:06;15.5;;;8.6;;
50651;SDS011;66928;52.086;5.240;2023-05-28T07:27:42;17.7;;;8.6;;
50651;SDS011;66928;52.086;5.240;2023-05-28T07:29:18;15.4;;;8.2;;
50651;SDS011;66928;52.086;5.240;2023-05-28T07:30:54;19.11;;;8.81;;
50651;SDS011;66928;52.086;5.240;2023-05-28T07:34:08;15.3;;;8.31;;
50651;SDS011;66928;52.086;5.240;2023-05-28T07:35:44;15.1;;;8.6;;
50651;SDS011;66928;52.086;5.240;2023-05-28T07:37:20;17.8;;;8.5;;
50651;SDS011;66928;52.086;5.240;2023-05-28T07:40:32;16.4;;;8.31;;
50651;SDS011;66928;52.086;5.240;2023-05-28T07:42:08;15.5;;;8.6;;
50651;SDS011;66928;52.086;5.240;2023-05-28T07:43:44;17.8;;;8.71;;
50651;SDS011;66928;52.086;5.240;2023-05-28T07:46:57;16.0;;;8.1;;
50651;SDS011;66928;52.086;5.240;2023-05-28T07:48:33;15.2;;;8.1;;
50651;SDS011;66928;52.086;5.240;2023-05-28T07:50:09;15.7;;;7.6;;
50651;SDS011;66928;52.086;5.240;2023-05-28T07:53:22;15.7;;;7.8;;
50651;SDS011;66928;52.086;5.240;2023-05-28T07:54:59;14.5;;;7.5;;
50651;SDS011;66928;52.086;5.240;2023-05-28T07:56:36;15.9;;;8.2;;
50651;SDS011;66928;52.086;5.240;2023-05-28T07:58:12;13.9;;;8.0;;
50651;SDS011;66928;52.086;5.240;2023-05-28T08:01:24;15.1;;;8.1;;
50651;SDS011;66928;52.086;5.240;2023-05-28T08:03:00;14.7;;;8.0;;
50651;SDS011;66928;52.086;5.240;2023-05-28T08:04:37;16.9;;;7.9;;
50651;SDS011;66928;52.086;5.240;2023-05-28T08:07:50;15.7;;;8.0;;
50651;SDS011;66928;52.086;5.240;2023-05-28T08:09:26;16.0;;;8.0;;
50651;SDS011;66928;52.086;5.240;2023-05-28T08:11:02;14.6;;;7.5;;
50651;SDS011;66928;52.086;5.240;2023-05-28T08:14:14;14.6;;;8.4;;
50651;SDS011;66928;52.086;5.240;2023-05-28T08:15:50;15.2;;;7.9;;
50651;SDS011;66928;52.086;5.240;2023-05-28T08:17:29;15.5;;;7.6;;
50651;SDS011;66928;52.086;5.240;2023-05-28T08:19:06;17.2;;;7.9;;
50651;SDS011;66928;52.086;5.240;2023-05-28T08:22:18;15.0;;;7.7;;
50651;SDS011;66928;52.086;5.240;2023-05-28T08:23:54;12.7;;;7.8;;
50651;SDS011;66928;52.086;5.240;2023-05-28T08:25:31;14.4;;;7.3;;
50651;SDS011;66928;52.086;5.240;2023-05-28T08:28:45;15.9;;;7.5;;
50651;SDS011;66928;52.086;5.240;2023-05-28T08:30:21;13.2;;;7.0;;
50651;SDS011;66928;52.086;5.240;2023-05-28T08:31:57;15.8;;;7.6;;
50651;SDS011;66928;52.086;5.240;2023-05-28T08:35:09;15.8;;;7.6;;
50651;SDS011;66928;52.086;5.240;2023-05-28T08:36:45;13.0;;;7.4;;
50651;SDS011;66928;52.086;5.240;2023-05-28T08:38:22;16.8;;;7.5;;
50651;SDS011;66928;52.086;5.240;2023-05-28T08:39:58;13.3;;;7.6;;
50651;SDS011;66928;52.086;5.240;2023-05-28T08:43:10;16.5;;;8.0;;
50651;SDS011;66928;52.086;5.240;2023-05-28T08:44:46;14.2;;;7.6;;
50651;SDS011;66928;52.086;5.240;2023-05-28T08:46:22;14.1;;;7.2;;
50651;SDS011;66928;52.086;5.240;2023-05-28T08:49:37;13.5;;;7.7;;
50651;SDS011;66928;52.086;5.240;2023-05-28T08:51:18;12.2;;;6.7;;
50651;SDS011;66928;52.086;5.240;2023-05-28T08:52:59;15.0;;;7.0;;
50651;SDS011;66928;52.086;5.240;2023-05-28T08:54:38;15.8;;;7.4;;
50651;SDS011;66928;52.086;5.240;2023-05-28T08:57:52;15.8;;;7.7;;
50651;SDS011;66928;52.086;5.240;2023-05-28T08:59:30;12.6;;;7.2;;
50651;SDS011;66928;52.086;5.240;2023-05-28T09:01:07;14.5;;;7.4;;
50651;SDS011;66928;52.086;5.240;2023-05-28T09:04:21;13.4;;;7.2;;
50651;SDS011;66928;52.086;5.240;2023-05-28T09:05:57;14.0;;;6.7;;
50651;SDS011;66928;52.086;5.240;2023-05-28T09:07:33;16.61;;;7.7;;
50651;SDS011;66928;52.086;5.240;2023-05-28T09:10:47;13.7;;;7.4;;
50651;SDS011;66928;52.086;5.240;2023-05-28T09:12:23;11.9;;;7.5;;
50651;SDS011;66928;52.086;5.240;2023-05-28T09:14:07;13.4;;;6.7;;
50651;SDS011;66928;52.086;5.240;2023-05-28T09:15:49;15.9;;;7.1;;
50651;SDS011;66928;52.086;5.240;2023-05-28T09:19:14;9.6;;;6.2;;
50651;SDS011;66928;52.086;5.240;2023-05-28T09:20:52;16.8;;;7.3;;
50651;SDS011;66928;52.086;5.240;2023-05-28T09:22:35;13.3;;;7.2;;
50651;SDS011;66928;52.086;5.240;2023-05-28T09:24:12;13.4;;;6.8;;
50651;SDS011;66928;52.086;5.240;2023-05-28T09:27:26;17.2;;;7.3;;
50651;SDS011;66928;52.086;5.240;2023-05-28T09:29:10;12.8;;;7.3;;
50651;SDS011;66928;52.086;5.240;2023-05-28T09:30:48;13.0;;;7.0;;
50651;SDS011;66928;52.086;5.240;2023-05-28T09:32:25;12.5;;;6.5;;
50651;SDS011;66928;52.086;5.240;2023-05-28T09:35:41;13.4;;;6.6;;
50651;SDS011;66928;52.086;5.240;2023-05-28T09:37:17;12.1;;;6.4;;
50651;SDS011;66928;52.086;5.240;2023-05-28T09:38:54;15.5;;;7.7;;
50651;SDS011;66928;52.086;5.240;2023-05-28T09:42:06;15.8;;;7.3;;
50651;SDS011;66928;52.086;5.240;2023-05-28T09:43:43;15.2;;;7.6;;
50651;SDS011;66928;52.086;5.240;2023-05-28T09:45:21;11.3;;;6.4;;
50651;SDS011;66928;52.086;5.240;2023-05-28T09:47:00;13.7;;;6.8;;
50651;SDS011;66928;52.086;5.240;2023-05-28T09:50:12;13.7;;;7.0;;
50651;SDS011;66928;52.086;5.240;2023-05-28T09:51:49;11.8;;;6.9;;
50651;SDS011;66928;52.086;5.240;2023-05-28T09:53:29;12.5;;;6.8;;
50651;SDS011;66928;52.086;5.240;2023-05-28T09:56:48;14.7;;;6.8;;
50651;SDS011;66928;52.086;5.240;2023-05-28T09:58:29;11.3;;;6.3;;
50651;SDS011;66928;52.086;5.240;2023-05-28T10:00:08;14.1;;;6.2;;
50651;SDS011;66928;52.086;5.240;2023-05-28T10:01:53;10.5;;;5.3;;
50651;SDS011;66928;52.086;5.240;2023-05-28T10:05:15;9.4;;;5.5;;
50651;SDS011;66928;52.086;5.240;2023-05-28T10:06:55;12.9;;;5.9;;
50651;SDS011;66928;52.086;5.240;2023-05-28T10:08:32;10.3;;;5.6;;
50651;SDS011;66928;52.086;5.240;2023-05-28T10:10:10;10.6;;;5.6;;
50651;SDS011;66928;52.086;5.240;2023-05-28T10:13:35;15.1;;;6.1;;
50651;SDS011;66928;52.086;5.240;2023-05-28T10:15:13;15.1;;;5.8;;
50651;SDS011;66928;52.086;5.240;2023-05-28T10:16:51;8.4;;;4.8;;
50651;SDS011;66928;52.086;5.240;2023-05-28T10:18:28;11.0;;;5.6;;
50651;SDS011;66928;52.086;5.240;2023-05-28T10:21:42;10.8;;;5.3;;
50651;SDS011;66928;52.086;5.240;2023-05-28T10:23:18;14.2;;;5.4;;
50651;SDS011;66928;52.086;5.240;2023-05-28T10:24:56;10.0;;;4.91;;
50651;SDS011;66928;52.086;5.240;2023-05-28T10:28:13;11.0;;;5.3;;
50651;SDS011;66928;52.086;5.240;2023-05-28T10:29:51;12.6;;;5.3;;
50651;SDS011;66928;52.086;5.240;2023-05-28T10:31:27;13.0;;;5.4;;
50651;SDS011;66928;52.086;5.240;2023-05-28T10:33:04;11.9;;;5.0;;
50651;SDS011;66928;52.086;5.240;2023-05-28T10:36:18;9.71;;;4.91;;
50651;SDS011;66928;52.086;5.240;2023-05-28T10:38:03;10.5;;;5.11;;
50651;SDS011;66928;52.086;5.240;2023-05-28T10:39:41;11.4;;;5.11;;
50651;SDS011;66928;52.086;5.240;2023-05-28T10:41:20;9.5;;;5.2;;
50651;SDS011;66928;52.086;5.240;2023-05-28T10:44:52;11.6;;;5.3;;
50651;SDS011;66928;52.086;5.240;2023-05-28T10:46:41;9.1;;;5.4;;
50651;SDS011;66928;52.086;5.240;2023-05-28T10:48:17;11.3;;;5.5;;
50651;SDS011;66928;52.086;5.240;2023-05-28T10:49:57;13.6;;;5.6;;
50651;SDS011;66928;52.086;5.240;2023-05-28T10:53:32;11.9;;;5.8;;
50651;SDS011;66928;52.086;5.240;2023-05-28T10:55:09;12.5;;;5.9;;
50651;SDS011;66928;52.086;5.240;2023-05-28T10:57:19;13.4;;;6.8;;
50651;SDS011;66928;52.086;5.240;2023-05-28T10:58:56;10.7;;;4.91;;
50651;SDS011;66928;52.086;5.240;2023-05-28T11:00:34;13.4;;;5.6;;
50651;SDS011;66928;52.086;5.240;2023-05-28T11:02:17;10.21;;;4.8;;
50651;SDS011;66928;52.086;5.240;2023-05-28T11:05:34;9.0;;;5.11;;
50651;SDS011;66928;52.086;5.240;2023-05-28T11:07:11;11.6;;;5.2;;
50651;SDS011;66928;52.086;5.240;2023-05-28T11:08:49;8.9;;;5.0;;
50651;SDS011;66928;52.086;5.240;2023-05-28T11:12:05;12.1;;;4.91;;
50651;SDS011;66928;52.086;5.240;2023-05-28T11:13:42;11.8;;;5.4;;
50651;SDS011;66928;52.086;5.240;2023-05-28T11:15:21;11.4;;;5.6;;
50651;SDS011;66928;52.086;5.240;2023-05-28T11:16:58;10.4;;;5.3;;
50651;SDS011;66928;52.086;5.240;2023-05-28T11:20:16;9.4;;;4.91;;
50651;SDS011;66928;52.086;5.240;2023-05-28T11:21:54;11.0;;;5.2;;
50651;SDS011;66928;52.086;5.240;2023-05-28T11:23:31;9.9;;;5.2;;
50651;SDS011;66928;52.086;5.240;2023-05-28T11:26:45;8.31;;;4.41;;
50651;SDS011;66928;52.086;5.240;2023-05-28T11:28:21;8.6;;;4.7;;
50651;SDS011;66928;52.086;5.240;2023-05-28T11:29:58;11.8;;;5.5;;
50651;SDS011;66928;52.086;5.240;2023-05-28T11:31:37;12.3;;;5.0;;
50651;SDS011;66928;52.086;5.240;2023-05-28T11:34:52;10.3;;;5.5;;
50651;SDS011;66928;52.086;5.240;2023-05-28T11:36:30;11.7;;;5.6;;
50651;SDS011;66928;52.086;5.240;2023-05-28T11:38:06;12.8;;;5.7;;
50651;SDS011;66928;52.086;5.240;2023-05-28T11:41:26;10.7;;;5.5;;
50651;SDS011;66928;52.086;5.240;2023-05-28T11:43:02;9.5;;;5.6;;
50651;SDS011;66928;52.086;5.240;2023-05-28T11:44:42;11.4;;;5.3;;
50651;SDS011;66928;52.086;5.240;2023-05-28T11:46:21;11.2;;;5.4;;
50651;SDS011;66928;52.086;5.240;2023-05-28T11:49:36;10.4;;;5.3;;
50651;SDS011;66928;52.086;5.240;2023-05-28T11:51:12;14.0;;;5.9;;
50651;SDS011;66928;52.086;5.240;2023-05-28T11:52:49;13.1;;;5.8;;
50651;SDS011;66928;52.086;5.240;2023-05-28T11:56:02;10.5;;;5.7;;
50651;SDS011;66928;52.086;5.240;2023-05-28T11:57:49;14.3;;;6.0;;
50651;SDS011;66928;52.086;5.240;2023-05-28T11:59:27;10.21;;;5.9;;
50651;SDS011;66928;52.086;5.240;2023-05-28T12:01:03;9.9;;;5.4;;
50651;SDS011;66928;52.086;5.240;2023-05-28T12:04:21;13.9;;;6.1;;
50651;SDS011;66928;52.086;5.240;2023-05-28T12:05:59;12.5;;;6.0;;
50651;SDS011;66928;52.086;5.240;2023-05-28T12:07:36;11.2;;;6.1;;
50651;SDS011;66928;52.086;5.240;2023-05-28T12:09:12;9.81;;;6.2;;
50651;SDS011;66928;52.086;5.240;2023-05-28T12:12:26;10.6;;;6.3;;
50651;SDS011;66928;52.086;5.240;2023-05-28T12:14:10;14.5;;;6.4;;
50651;SDS011;66928;52.086;5.240;2023-05-28T12:15:48;12.5;;;6.4;;
50651;SDS011;66928;52.086;5.240;2023-05-28T12:19:00;8.9;;;5.9;;
50651;SDS011;66928;52.086;5.240;2023-05-28T12:20:39;10.9;;;6.3;;
50651;SDS011;66928;52.086;5.240;2023-05-28T12:22:16;12.9;;;5.7;;
50651;SDS011;66928;52.086;5.240;2023-05-28T12:23:52;10.0;;;6.0;;
50651;SDS011;66928;52.086;5.240;2023-05-28T12:27:14;13.8;;;5.8;;
50651;SDS011;66928;52.086;5.240;2023-05-28T12:28:50;11.0;;;6.1;;
50651;SDS011;66928;52.086;5.240;2023-05-28T12:30:26;10.3;;;6.0;;
50651;SDS011;66928;52.086;5.240;2023-05-28T12:33:40;9.71;;;6.0;;
50651;SDS011;66928;52.086;5.240;2023-05-28T12:35:16;10.6;;;5.4;;
50651;SDS011;66928;52.086;5.240;2023-05-28T12:36:53;12.3;;;6.0;;
50651;SDS011;66928;52.086;5.240;2023-05-28T12:38:29;11.7;;;6.6;;
50651;SDS011;66928;52.086;5.240;2023-05-28T12:41:42;14.5;;;6.8;;
50651;SDS011;66928;52.086;5.240;2023-05-28T12:43:18;14.0;;;6.4;;
50651;SDS011;66928;52.086;5.240;2023-05-28T12:44:55;11.4;;;6.6;;
50651;SDS011;66928;52.086;5.240;2023-05-28T12:48:08;10.8;;;6.6;;
50651;SDS011;66928;52.086;5.240;2023-05-28T12:49:44;12.4;;;6.5;;
50651;SDS011;66928;52.086;5.240;2023-05-28T12:51:20;10.7;;;6.1;;
50651;SDS011;66928;52.086;5.240;2023-05-28T12:54:33;10.9;;;6.4;;
50651;SDS011;66928;52.086;5.240;2023-05-28T12:56:10;13.0;;;6.6;;
50651;SDS011;66928;52.086;5.240;2023-05-28T12:57:46;11.2;;;6.1;;
50651;SDS011;66928;52.086;5.240;2023-05-28T12:59:22;12.8;;;6.1;;
50651;SDS011;66928;52.086;5.240;2023-05-28T13:02:35;10.9;;;6.1;;
50651;SDS011;66928;52.086;5.240;2023-05-28T13:04:12;10.3;;;6.0;;
50651;SDS011;66928;52.086;5.240;2023-05-28T13:05:49;15.6;;;6.7;;
50651;SDS011;66928;52.086;5.240;2023-05-28T13:09:01;12.9;;;6.8;;
50651;SDS011;66928;52.086;5.240;2023-05-28T13:10:38;9.31;;;5.9;;
50651;SDS011;66928;52.086;5.240;2023-05-28T13:12:14;10.3;;;5.9;;
50651;SDS011;66928;52.086;5.240;2023-05-28T13:15:27;10.4;;;6.1;;
50651;SDS011;66928;52.086;5.240;2023-05-28T13:17:03;11.1;;;5.7;;
50651;SDS011;66928;52.086;5.240;2023-05-28T13:18:39;11.7;;;6.1;;
50651;SDS011;66928;52.086;5.240;2023-05-28T13:20:15;11.0;;;5.8;;
50651;SDS011;66928;52.086;5.240;2023-05-28T13:23:28;10.4;;;5.9;;
50651;SDS011;66928;52.086;5.240;2023-05-28T13:25:05;10.6;;;5.6;;
50651;SDS011;66928;52.086;5.240;2023-05-28T13:26:43;9.1;;;5.8;;
50651;SDS011;66928;52.086;5.240;2023-05-28T13:29:55;8.31;;;5.7;;
50651;SDS011;66928;52.086;5.240;2023-05-28T13:31:32;10.5;;;5.8;;
50651;SDS011;66928;52.086;5.240;2023-05-28T13:33:09;9.9;;;6.5;;
50651;SDS011;66928;52.086;5.240;2023-05-28T13:36:22;11.0;;;6.0;;
50651;SDS011;66928;52.086;5.240;2023-05-28T13:37:59;7.7;;;5.7;;
50651;SDS011;66928;52.086;5.240;2023-05-28T13:39:35;9.71;;;5.3;;
50651;SDS011;66928;52.086;5.240;2023-05-28T13:41:12;10.0;;;5.6;;
50651;SDS011;66928;52.086;5.240;2023-05-28T13:44:25;8.81;;;5.3;;
50651;SDS011;66928;52.086;5.240;2023-05-28T13:46:02;8.4;;;5.5;;
50651;SDS011;66928;52.086;5.240;2023-05-28T13:47:38;8.71;;;5.6;;
50651;SDS011;66928;52.086;5.240;2023-05-28T13:50:51;8.31;;;5.5;;
50651;SDS011;66928;52.086;5.240;2023-05-28T13:52:27;10.21;;;5.9;;
50651;SDS011;66928;52.086;5.240;2023-05-28T13:54:03;9.71;;;5.8;;
50651;SDS011;66928;52.086;5.240;2023-05-28T13:57:16;9.4;;;6.0;;
50651;SDS011;66928;52.086;5.240;2023-05-28T13:58:52;11.0;;;6.2;;
50651;SDS011;66928;52.086;5.240;2023-05-28T14:00:28;10.8;;;6.3;;
50651;SDS011;66928;52.086;5.240;2023-05-28T14:03:40;9.71;;;5.8;;
50651;SDS011;66928;52.086;5.240;2023-05-28T14:05:16;11.0;;;6.1;;
50651;SDS011;66928;52.086;5.240;2023-05-28T14:06:54;12.4;;;6.2;;
50651;SDS011;66928;52.086;5.240;2023-05-28T14:08:30;7.9;;;5.9;;
50651;SDS011;66928;52.086;5.240;2023-05-28T14:11:43;8.1;;;5.9;;
50651;SDS011;66928;52.086;5.240;2023-05-28T14:13:19;9.0;;;6.3;;
50651;SDS011;66928;52.086;5.240;2023-05-28T14:14:55;9.21;;;6.1;;
50651;SDS011;66928;52.086;5.240;2023-05-28T14:18:09;10.4;;;5.7;;
50651;SDS011;66928;52.086;5.240;2023-05-28T14:19:47;10.1;;;6.1;;
50651;SDS011;66928;52.086;5.240;2023-05-28T14:21:23;8.5;;;5.8;;
50651;SDS011;66928;52.086;5.240;2023-05-28T14:24:36;12.3;;;5.7;;
50651;SDS011;66928;52.086;5.240;2023-05-28T14:26:13;10.0;;;6.2;;
50651;SDS011;66928;52.086;5.240;2023-05-28T14:27:49;8.6;;;5.7;;
50651;SDS011;66928;52.086;5.240;2023-05-28T14:29:25;9.81;;;5.8;;
50651;SDS011;66928;52.086;5.240;2023-05-28T14:32:37;8.5;;;5.8;;
50651;SDS011;66928;52.086;5.240;2023-05-28T14:34:13;8.6;;;5.6;;
50651;SDS011;66928;52.086;5.240;2023-05-28T14:35:50;8.6;;;5.4;;
50651;SDS011;66928;52.086;5.240;2023-05-28T14:39:03;10.1;;;5.9;;
50651;SDS011;66928;52.086;5.240;2023-05-28T14:40:39;6.6;;;5.11;;
50651;SDS011;66928;52.086;5.240;2023-05-28T14:42:15;10.4;;;5.6;;
50651;SDS011;66928;52.086;5.240;2023-05-28T14:45:28;7.9;;;5.6;;
50651;SDS011;66928;52.086;5.240;2023-05-28T14:47:04;7.8;;;5.11;;
50651;SDS011;66928;52.086;5.240;2023-05-28T14:48:41;8.6;;;5.2;;
50651;SDS011;66928;52.086;5.240;2023-05-28T14:50:17;8.0;;;4.8;;
50651;SDS011;66928;52.086;5.240;2023-05-28T14:53:30;11.4;;;5.6;;
50651;SDS011;66928;52.086;5.240;2023-05-28T14:55:07;8.4;;;5.0;;
50651;SDS011;66928;52.086;5.240;2023-05-28T14:56:44;10.9;;;5.6;;
50651;SDS011;66928;52.086;5.240;2023-05-28T14:59:58;8.1;;;5.0;;
50651;SDS011;66928;52.086;5.240;2023-05-28T15:01:37;7.2;;;4.5;;
50651;SDS011;66928;52.086;5.240;2023-05-28T15:03:13;7.7;;;4.2;;
50651;SDS011;66928;52.086;5.240;2023-05-28T15:06:26;7.0;;;4.2;;
50651;SDS011;66928;52.086;5.240;2023-05-28T15:08:02;9.0;;;5.2;;
50651;SDS011;66928;52.086;5.240;2023-05-28T15:09:39;11.2;;;5.3;;
50651;SDS011;66928;52.086;5.240;2023-05-28T15:11:16;6.4;;;4.7;;
50651;SDS011;66928;52.086;5.240;2023-05-28T15:14:29;7.2;;;4.7;;
50651;SDS011;66928;52.086;5.240;2023-05-28T15:22:13;7.2;;;4.3;;
50651;SDS011;66928;52.086;5.240;2023-05-28T15:23:50;6.2;;;4.3;;
50651;SDS011;66928;52.086;5.240;2023-05-28T15:27:03;8.1;;;4.2;;
50651;SDS011;66928;52.086;5.240;2023-05-28T15:28:39;7.2;;;4.7;;
50651;SDS011;66928;52.086;5.240;2023-05-28T15:30:15;7.9;;;4.7;;
50651;SDS011;66928;52.086;5.240;2023-05-28T15:33:30;7.0;;;4.41;;
50651;SDS011;66928;52.086;5.240;2023-05-28T15:35:09;8.81;;;4.7;;
50651;SDS011;66928;52.086;5.240;2023-05-28T15:36:46;8.4;;;4.41;;
50651;SDS011;66928;52.086;5.240;2023-05-28T15:38:22;10.5;;;4.41;;
50651;SDS011;66928;52.086;5.240;2023-05-28T15:41:34;9.6;;;4.3;;
50651;SDS011;66928;52.086;5.240;2023-05-28T15:43:11;7.8;;;5.0;;
50651;SDS011;66928;52.086;5.240;2023-05-28T15:44:48;7.5;;;4.3;;
50651;SDS011;66928;52.086;5.240;2023-05-28T15:48:00;8.5;;;4.91;;
50651;SDS011;66928;52.086;5.240;2023-05-28T15:49:36;8.2;;;4.2;;
50651;SDS011;66928;52.086;5.240;2023-05-28T15:51:13;6.9;;;3.9;;
50651;SDS011;66928;52.086;5.240;2023-05-28T15:54:25;8.5;;;4.1;;
50651;SDS011;66928;52.086;5.240;2023-05-28T15:56:02;8.5;;;4.0;;
50651;SDS011;66928;52.086;5.240;2023-05-28T15:57:38;7.3;;;3.7;;
50651;SDS011;66928;52.086;5.240;2023-05-28T15:59:14;10.9;;;4.61;;
50651;SDS011;66928;52.086;5.240;2023-05-28T16:02:28;9.5;;;4.3;;
50651;SDS011;66928;52.086;5.240;2023-05-28T16:04:07;10.21;;;4.61;;
50651;SDS011;66928;52.086;5.240;2023-05-28T16:05:44;11.4;;;5.11;;
50651;SDS011;66928;52.086;5.240;2023-05-28T16:08:58;8.81;;;4.2;;
50651;SDS011;66928;52.086;5.240;2023-05-28T16:10:35;9.21;;;5.5;;
50651;SDS011;66928;52.086;5.240;2023-05-28T16:12:11;10.9;;;5.9;;
50651;SDS011;66928;52.086;5.240;2023-05-28T16:15:25;10.21;;;5.8;;
50651;SDS011;66928;52.086;5.240;2023-05-28T16:17:04;9.1;;;4.5;;
50651;SDS011;66928;52.086;5.240;2023-05-28T16:18:43;8.9;;;4.3;;
50651;SDS011;66928;52.086;5.240;2023-05-28T16:20:20;8.0;;;4.0;;
50651;SDS011;66928;52.086;5.240;2023-05-28T16:23:33;9.81;;;4.2;;
50651;SDS011;66928;52.086;5.240;2023-05-28T16:25:10;8.6;;;3.9;;
50651;SDS011;66928;52.086;5.240;2023-05-28T16:26:48;13.3;;;4.8;;
50651;SDS011;66928;52.086;5.240;2023-05-28T16:30:02;7.3;;;4.3;;
50651;SDS011;66928;52.086;5.240;2023-05-28T16:31:40;9.9;;;4.41;;
50651;SDS011;66928;52.086;5.240;2023-05-28T16:33:16;6.1;;;4.1;;
50651;SDS011;66928;52.086;5.240;2023-05-28T16:34:52;10.1;;;4.0;;
50651;SDS011;66928;52.086;5.240;2023-05-28T16:38:04;6.5;;;4.1;;
50651;SDS011;66928;52.086;5.240;2023-05-28T16:39:41;7.2;;;3.8;;
50651;SDS011;66928;52.086;5.240;2023-05-28T16:41:18;11.8;;;5.9;;
50651;SDS011;66928;52.086;5.240;2023-05-28T16:44:30;9.0;;;5.7;;
50651;SDS011;66928;52.086;5.240;2023-05-28T16:46:06;10.1;;;5.11;;
50651;SDS011;66928;52.086;5.240;2023-05-28T16:47:43;10.21;;;5.4;;
50651;SDS011;66928;52.086;5.240;2023-05-28T16:50:56;8.1;;;4.7;;
50651;SDS011;66928;52.086;5.240;2023-05-28T16:52:32;10.21;;;4.3;;
50651;SDS011;66928;52.086;5.240;2023-05-28T16:54:08;10.0;;;4.8;;
50651;SDS011;66928;52.086;5.240;2023-05-28T16:55:44;9.9;;;4.5;;
50651;SDS011;66928;52.086;5.240;2023-05-28T16:58:57;10.5;;;4.61;;
50651;SDS011;66928;52.086;5.240;2023-05-28T17:00:33;8.81;;;4.7;;
50651;SDS011;66928;52.086;5.240;2023-05-28T17:02:09;11.0;;;4.1;;
50651;SDS011;66928;52.086;5.240;2023-05-28T17:05:22;7.8;;;4.1;;
50651;SDS011;66928;52.086;5.240;2023-05-28T17:06:58;8.81;;;4.3;;
50651;SDS011;66928;52.086;5.240;2023-05-28T17:08:34;9.6;;;4.5;;
50651;SDS011;66928;52.086;5.240;2023-05-28T17:11:46;7.2;;;3.9;;
50651;SDS011;66928;52.086;5.240;2023-05-28T17:13:22;10.6;;;4.61;;
50651;SDS011;66928;52.086;5.240;2023-05-28T17:14:58;10.9;;;4.7;;
50651;SDS011;66928;52.086;5.240;2023-05-28T17:18:11;11.0;;;4.5;;
50651;SDS011;66928;52.086;5.240;2023-05-28T17:19:47;11.2;;;4.5;;
50651;SDS011;66928;52.086;5.240;2023-05-28T17:21:23;10.3;;;4.61;;
50651;SDS011;66928;52.086;5.240;2023-05-28T17:22:59;9.31;;;4.3;;
50651;SDS011;66928;52.086;5.240;2023-05-28T17:26:12;9.9;;;4.41;;
50651;SDS011;66928;52.086;5.240;2023-05-28T17:27:47;10.1;;;4.7;;
50651;SDS011;66928;52.086;5.240;2023-05-28T17:29:23;8.6;;;4.61;;
50651;SDS011;66928;52.086;5.240;2023-05-28T17:32:36;9.4;;;4.61;;
50651;SDS011;66928;52.086;5.240;2023-05-28T17:34:12;9.71;;;4.7;;
50651;SDS011;66928;52.086;5.240;2023-05-28T17:35:48;9.6;;;4.61;;
50651;SDS011;66928;52.086;5.240;2023-05-28T17:39:00;10.5;;;5.6;;
50651;SDS011;66928;52.086;5.240;2023-05-28T17:40:36;9.1;;;4.7;;
50651;SDS011;66928;52.086;5.240;2023-05-28T17:42:13;10.0;;;4.61;;
50651;SDS011;66928;52.086;5.240;2023-05-28T17:45:25;11.2;;;5.11;;
50651;SDS011;66928;52.086;5.240;2023-05-28T17:47:01;11.8;;;5.2;;
50651;SDS011;66928;52.086;5.240;2023-05-28T17:48:37;10.9;;;5.4;;
50651;SDS011;66928;52.086;5.240;2023-05-28T17:50:13;11.0;;;5.4;;
50651;SDS011;66928;52.086;5.240;2023-05-28T17:53:26;11.4;;;5.5;;
50651;SDS011;66928;52.086;5.240;2023-05-28T17:55:02;11.2;;;5.0;;
50651;SDS011;66928;52.086;5.240;2023-05-28T17:56:38;14.8;;;5.6;;
50651;SDS011;66928;52.086;5.240;2023-05-28T17:59:50;11.1;;;5.3;;
50651;SDS011;66928;52.086;5.240;2023-05-28T18:01:26;12.2;;;5.5;;
50651;SDS011;66928;52.086;5.240;2023-05-28T18:03:02;9.9;;;4.7;;
50651;SDS011;66928;52.086;5.240;2023-05-28T18:07:51;10.6;;;5.0;;
50651;SDS011;66928;52.086;5.240;2023-05-28T18:09:28;10.6;;;5.0;;
50651;SDS011;66928;52.086;5.240;2023-05-28T18:11:04;10.7;;;5.4;;
50651;SDS011;66928;52.086;5.240;2023-05-28T18:14:16;11.7;;;5.4;;
50651;SDS011;66928;52.086;5.240;2023-05-28T18:15:53;9.81;;;5.6;;
50651;SDS011;66928;52.086;5.240;2023-05-28T18:17:30;10.7;;;5.8;;
50651;SDS011;66928;52.086;5.240;2023-05-28T18:20:42;13.5;;;5.8;;
50651;SDS011;66928;52.086;5.240;2023-05-28T18:22:18;14.5;;;6.5;;
50651;SDS011;66928;52.086;5.240;2023-05-28T18:23:58;12.6;;;6.0;;
50651;SDS011;66928;52.086;5.240;2023-05-28T18:25:42;14.1;;;6.4;;
50651;SDS011;66928;52.086;5.240;2023-05-28T18:28:54;10.8;;;6.4;;
50651;SDS011;66928;52.086;5.240;2023-05-28T18:30:30;15.2;;;7.2;;
50651;SDS011;66928;52.086;5.240;2023-05-28T18:32:06;13.5;;;6.8;;